Time;durP1;ratioP1;P1;durP2;ratioP2;P2;SDS_P1;SDS_P2;PMS_P1;PMS_P2;Temp;Humidity;BMP_temperature;BMP_pressure;BME280_temperature;BME280_humidity;BME280_pressure;Samples;Min_cycle;Max_cycle;Signal;HPM_P1;HPM_P2
2021/01/23 00:01:30;;;;;;;38.17;19.35;;;;;;;0.58;91.13;99802.94;4939519;29;20035;-77
2021/01/23 00:03:55;;;;;;;43.30;19.70;;;;;;;0.55;91.64;99796.25;4942172;29;20498;-78
2021/01/23 00:06:21;;;;;;;37.70;17.98;;;;;;;0.47;91.27;99788.22;4943586;28;20142;-78
2021/01/23 00:08:47;;;;;;;36.50;18.73;;;;;;;0.45;91.38;99779.75;4943728;28;20460;-76
2021/01/23 00:11:18;;;;;;;34.13;19.73;;;;;;;0.49;91.97;99785.50;4949277;28;20030;-80
2021/01/23 00:13:44;;;;;;;34.80;17.95;;;;;;;0.51;91.49;99792.25;4934290;29;20047;-78
2021/01/23 00:16:40;;;;;;;28.80;17.55;;;;;;;0.24;91.88;99768.31;4924859;29;20047;-79
2021/01/23 00:19:06;;;;;;;35.50;19.58;;;;;;;0.17;92.47;99766.16;4949324;29;20048;-76
2021/01/23 00:21:32;;;;;;;40.92;19.42;;;;;;;0.04;92.11;99760.19;4936522;29;20035;-75
2021/01/23 00:23:58;;;;;;;33.05;18.95;;;;;;;0.07;92.75;99759.97;4956100;28;20035;-77
2021/01/23 00:26:29;;;;;;;35.13;19.15;;;;;;;0.05;92.43;99753.28;4962996;28;20071;-78
2021/01/23 00:28:56;;;;;;;34.65;19.05;;;;;;;0.02;92.52;99766.34;4938832;29;20055;-79
2021/01/23 00:31:23;;;;;;;40.97;19.17;;;;;;;-0.13;93.16;99768.19;4939566;28;20118;-79
2021/01/23 00:33:49;;;;;;;35.80;19.55;;;;;;;-0.13;93.20;99781.94;4955988;28;20122;-80
2021/01/23 00:36:15;;;;;;;33.75;17.80;;;;;;;-0.26;93.62;99779.34;4940617;29;20468;-76
2021/01/23 00:38:42;;;;;;;36.13;18.50;;;;;;;-0.32;93.97;99787.47;4961362;28;20035;-78
2021/01/23 00:41:08;;;;;;;33.08;17.67;;;;;;;-0.44;93.59;99777.94;4955045;29;20110;-77
2021/01/23 00:43:33;;;;;;;32.10;17.48;;;;;;;-0.55;93.82;99770.09;4944450;29;20039;-77
2021/01/23 00:45:59;;;;;;;30.17;17.98;;;;;;;-0.58;94.07;99771.13;4950385;28;20764;-76
2021/01/23 00:48:24;;;;;;;32.63;19.73;;;;;;;-0.59;94.90;99775.44;4923627;29;20036;-77
2021/01/23 00:50:50;;;;;;;37.28;19.45;;;;;;;-0.47;94.42;99780.72;4924447;28;20023;-77
2021/01/23 00:53:17;;;;;;;34.60;19.85;;;;;;;-0.32;94.63;99779.75;4955640;28;20476;-77
2021/01/23 00:55:46;;;;;;;41.47;21.77;;;;;;;-0.10;94.33;99791.22;4918422;29;20049;-79
2021/01/23 00:58:12;;;;;;;38.22;22.35;;;;;;;-0.14;94.11;99788.00;4936615;29;20135;-78
2021/01/23 01:00:47;;;;;;;41.08;21.15;;;;;;;-0.25;94.28;99780.97;4937273;29;20067;-80
2021/01/23 01:03:13;;;;;;;41.38;21.27;;;;;;;-0.10;93.61;99792.03;4959761;28;20039;-80
2021/01/23 01:05:51;;;;;;;45.47;21.70;;;;;;;-0.07;93.77;99793.59;4918585;29;20059;-79
2021/01/23 01:08:17;;;;;;;44.03;22.52;;;;;;;-0.19;93.50;99772.00;4939888;29;20122;-76
2021/01/23 01:10:45;;;;;;;42.13;21.15;;;;;;;-0.02;93.55;99794.09;4958992;28;20126;-78
2021/01/23 01:13:12;;;;;;;47.13;21.25;;;;;;;0.02;93.20;99787.81;4946575;28;20460;-77
2021/01/23 01:15:38;;;;;;;48.55;22.05;;;;;;;0.01;93.19;99787.91;4935785;29;20035;-77
2021/01/23 01:18:04;;;;;;;42.65;22.80;;;;;;;-0.12;93.71;99787.91;4931736;28;20799;-79
2021/01/23 01:20:30;;;;;;;43.35;21.77;;;;;;;-0.30;94.07;99782.19;4937243;29;20047;-78
2021/01/23 01:22:55;;;;;;;45.17;21.48;;;;;;;-0.33;94.55;99785.00;4951861;28;20031;-77
2021/01/23 01:25:21;;;;;;;38.25;20.38;;;;;;;-0.43;94.08;99780.44;4950882;28;20445;-75
2021/01/23 01:27:47;;;;;;;36.08;19.98;;;;;;;-0.56;94.79;99779.59;4915465;29;20050;-76
2021/01/23 01:30:13;;;;;;;35.33;19.75;;;;;;;-0.61;94.90;99777.28;4927200;29;20417;-76
2021/01/23 01:32:38;;;;;;;39.95;20.20;;;;;;;-0.71;95.02;99781.38;4933776;29;20051;-80
2021/01/23 01:35:04;;;;;;;35.08;20.17;;;;;;;-0.77;94.85;99786.09;4943750;29;20052;-77
2021/01/23 01:37:30;;;;;;;41.58;20.67;;;;;;;-0.86;94.64;99787.50;4949035;29;20041;-76
2021/01/23 01:39:55;;;;;;;36.78;18.33;;;;;;;-0.92;95.50;99793.88;4942351;28;20051;-74
2021/01/23 01:42:21;;;;;;;39.80;21.83;;;;;;;-1.02;94.93;99785.91;4937341;29;20062;-76
2021/01/23 01:44:47;;;;;;;38.45;19.52;;;;;;;-1.02;95.41;99788.47;4933997;29;20103;-74
2021/01/23 01:47:13;;;;;;;35.17;18.40;;;;;;;-1.07;95.34;99780.22;4951654;29;20062;-73
2021/01/23 01:49:38;;;;;;;39.40;20.90;;;;;;;-1.01;95.61;99786.72;4936005;29;20057;-76
2021/01/23 01:52:04;;;;;;;46.08;22.23;;;;;;;-0.88;95.65;99787.59;4934308;29;20038;-75
2021/01/23 01:54:30;;;;;;;45.17;23.05;;;;;;;-0.66;95.43;99786.22;4936109;29;20035;-76
2021/01/23 01:56:55;;;;;;;40.58;22.13;;;;;;;-0.50;95.54;99788.66;4940289;28;20087;-76
2021/01/23 01:59:21;;;;;;;42.05;22.83;;;;;;;-0.35;95.10;99784.28;4943323;28;20039;-77
2021/01/23 02:01:47;;;;;;;38.65;21.92;;;;;;;-0.45;94.83;99786.63;4965874;28;20047;-78
2021/01/23 02:04:30;;;;;;;40.63;21.30;;;;;;;-0.62;95.09;99777.41;4912188;29;20053;-75
2021/01/23 02:07:25;;;;;;;33.78;17.70;;;;;;;-0.74;95.32;99783.31;4941721;29;20036;-77
2021/01/23 02:10:09;;;;;;;39.33;19.40;;;;;;;-0.78;95.26;99790.41;4932325;29;20027;-77
2021/01/23 02:12:54;;;;;;;39.53;21.05;;;;;;;-0.78;95.34;99798.16;4945216;28;20050;-75
2021/01/23 02:15:23;;;;;;;50.10;23.52;;;;;;;-0.70;95.67;99793.31;4937029;28;20101;-76
2021/01/23 02:17:53;;;;;;;46.08;22.95;;;;;;;-0.68;95.71;99791.50;4961238;28;20042;-75
2021/01/23 02:20:53;;;;;;;35.58;20.50;;;;;;;-0.73;95.76;99795.28;4938813;29;20088;-77
2021/01/23 02:23:26;;;;;;;37.38;19.83;;;;;;;-0.83;95.76;99784.72;4935163;29;20135;-77
2021/01/23 02:26:10;;;;;;;40.70;21.63;;;;;;;-0.80;95.57;99794.84;4951496;28;20074;-78
2021/01/23 02:28:41;;;;;;;42.55;23.52;;;;;;;-0.81;95.66;99794.03;4945188;29;20119;-76
2021/01/23 02:31:10;;;;;;;44.42;24.35;;;;;;;-0.77;95.65;99796.38;4932612;28;20059;-78
2021/01/23 02:33:38;;;;;;;44.40;24.23;;;;;;;-0.73;95.61;99793.53;4935555;29;20035;-77
2021/01/23 02:36:07;;;;;;;43.97;23.58;;;;;;;-0.71;95.98;99802.00;4951701;28;20035;-75
2021/01/23 02:38:34;;;;;;;45.30;22.10;;;;;;;-0.79;95.82;99799.09;4946741;28;20114;-78
2021/01/23 02:41:02;;;;;;;46.10;24.20;;;;;;;-0.83;96.13;99795.03;4945160;28;20078;-77
2021/01/23 02:43:28;;;;;;;46.75;23.60;;;;;;;-0.85;96.15;99789.16;4951178;28;20049;-76
2021/01/23 02:45:53;;;;;;;41.45;21.90;;;;;;;-0.79;96.08;99801.66;4945340;28;20114;-75
2021/01/23 02:48:19;;;;;;;47.13;23.80;;;;;;;-0.80;95.95;99805.16;4945456;29;20039;-76
2021/01/23 02:50:45;;;;;;;45.60;22.38;;;;;;;-0.78;96.35;99811.03;4922567;29;20039;-77
2021/01/23 02:53:20;;;;;;;42.80;21.17;;;;;;;-0.79;96.11;99814.53;4944976;29;20514;-76
2021/01/23 02:55:53;;;;;;;41.78;21.63;;;;;;;-0.79;96.24;99817.13;4915720;29;20044;-77
2021/01/23 02:58:23;;;;;;;45.15;22.67;;;;;;;-0.75;96.35;99812.56;4926667;29;20402;-74
2021/01/23 03:00:50;;;;;;;48.75;26.80;;;;;;;-0.70;96.06;99805.38;4958187;28;20039;-75
2021/01/23 03:03:18;;;;;;;61.10;29.02;;;;;;;-0.59;96.32;99808.91;4943529;29;20062;-77
2021/01/23 03:05:44;;;;;;;55.88;27.98;;;;;;;-0.71;96.52;99808.91;4936987;29;20055;-77
2021/01/23 03:08:16;;;;;;;43.45;24.38;;;;;;;-0.76;96.43;99803.19;4934636;29;20455;-75
2021/01/23 03:10:45;;;;;;;52.65;26.23;;;;;;;-0.76;96.52;99805.78;4952452;28;20474;-77
2021/01/23 03:13:12;;;;;;;51.45;26.85;;;;;;;-0.71;96.56;99801.16;4946143;28;20126;-79
2021/01/23 03:15:39;;;;;;;46.00;22.40;;;;;;;-0.72;96.41;99802.09;4942470;29;20046;-79
2021/01/23 03:18:06;;;;;;;52.47;26.67;;;;;;;-0.71;96.43;99803.75;4921736;29;20047;-78
2021/01/23 03:20:31;;;;;;;50.67;24.27;;;;;;;-0.80;96.30;99800.81;4922742;29;20565;-78
2021/01/23 03:22:58;;;;;;;55.03;28.38;;;;;;;-0.69;96.30;99812.19;4923875;29;20031;-81
2021/01/23 03:25:28;;;;;;;49.08;24.20;;;;;;;-0.75;96.70;99803.13;4918968;28;20121;-78
2021/01/23 03:27:58;;;;;;;47.97;24.10;;;;;;;-0.85;96.48;99790.00;4916561;29;20095;-78
2021/01/23 03:30:25;;;;;;;48.75;24.75;;;;;;;-0.83;96.38;99798.44;4919672;29;20151;-79
2021/01/23 03:32:52;;;;;;;51.85;24.75;;;;;;;-0.84;96.43;99804.50;4927006;29;20043;-80
2021/01/23 03:35:18;;;;;;;53.10;23.02;;;;;;;-0.81;96.56;99806.06;4918862;29;20039;-79
2021/01/23 03:37:44;;;;;;;55.55;25.30;;;;;;;-0.85;96.24;99797.72;4933445;29;20102;-79
2021/01/23 03:40:10;;;;;;;46.53;25.00;;;;;;;-0.87;96.48;99799.53;4925168;28;20382;-80
2021/01/23 03:42:37;;;;;;;59.08;27.95;;;;;;;-0.85;96.52;99796.88;4937089;28;20030;-80
2021/01/23 03:45:06;;;;;;;58.78;30.40;;;;;;;-0.86;96.91;99785.75;4932762;29;20035;-78
2021/01/23 03:47:32;;;;;;;53.45;27.92;;;;;;;-0.76;96.79;99796.28;4946020;29;20501;-79
2021/01/23 03:49:57;;;;;;;59.47;26.98;;;;;;;-0.79;96.68;99802.47;4954947;28;20035;-79
2021/01/23 03:52:23;;;;;;;48.05;25.13;;;;;;;-0.79;97.04;99804.22;4931644;29;20035;-78
2021/01/23 03:54:49;;;;;;;47.35;25.58;;;;;;;-0.69;96.53;99812.19;4978405;28;20043;-79
2021/01/23 03:57:14;;;;;;;57.25;26.02;;;;;;;-0.73;96.79;99813.31;4932705;29;20040;-80
2021/01/23 03:59:40;;;;;;;45.13;24.83;;;;;;;-0.81;96.29;99798.31;4931423;29;20136;-78
2021/01/23 04:02:05;;;;;;;61.90;27.98;;;;;;;-0.74;96.40;99809.09;4918983;29;20155;-78
2021/01/23 04:04:31;;;;;;;56.85;27.42;;;;;;;-0.74;96.78;99809.09;4928373;29;20039;-79
2021/01/23 04:06:58;;;;;;;54.30;27.33;;;;;;;-0.77;96.58;99799.81;4930529;29;20089;-80
2021/01/23 04:09:24;;;;;;;61.83;28.13;;;;;;;-0.75;96.80;99805.69;4920851;29;20100;-77
2021/01/23 04:11:50;;;;;;;58.42;28.42;;;;;;;-0.80;96.83;99798.22;4958239;28;20031;-74
2021/01/23 04:14:16;;;;;;;60.88;29.35;;;;;;;-0.69;96.76;99804.47;4940582;29;20074;-80
2021/01/23 04:16:46;;;;;;;56.30;26.88;;;;;;;-0.68;96.41;99804.38;4937340;29;20032;-79
2021/01/23 04:19:12;;;;;;;57.83;28.33;;;;;;;-0.70;96.71;99805.38;4943763;29;20041;-79
2021/01/23 04:21:38;;;;;;;50.35;27.63;;;;;;;-0.68;96.76;99806.09;4932487;29;20032;-79
2021/01/23 04:24:04;;;;;;;56.70;26.83;;;;;;;-0.72;96.93;99791.78;4927944;29;20028;-79
2021/01/23 04:26:29;;;;;;;49.95;27.63;;;;;;;-0.72;96.80;99792.59;4917155;28;20047;-78
2021/01/23 04:28:55;;;;;;;63.38;27.95;;;;;;;-0.70;96.94;99792.50;4919457;29;20039;-79
2021/01/23 04:31:20;;;;;;;65.63;27.70;;;;;;;-0.70;96.60;99798.47;4932533;29;20043;-81
2021/01/23 04:33:46;;;;;;;61.45;28.88;;;;;;;-0.73;97.08;99790.16;4927583;29;20043;-78
2021/01/23 04:36:11;;;;;;;62.95;29.67;;;;;;;-0.72;96.61;99787.44;4925728;29;20486;-79
2021/01/23 04:38:37;;;;;;;57.65;27.88;;;;;;;-0.74;96.31;99788.47;4948584;29;20473;-79
2021/01/23 04:41:02;;;;;;;62.85;30.10;;;;;;;-0.69;96.23;99799.31;4932026;29;20118;-80
2021/01/23 04:43:28;;;;;;;55.78;28.98;;;;;;;-0.70;96.54;99797.66;4911257;29;20059;-79
2021/01/23 04:45:54;;;;;;;58.55;28.23;;;;;;;-0.72;96.46;99795.16;4919024;28;20063;-81
2021/01/23 04:48:19;;;;;;;55.10;27.05;;;;;;;-0.75;96.43;99792.81;4957252;28;20411;-79
2021/01/23 04:50:46;;;;;;;52.60;27.02;;;;;;;-0.72;96.38;99802.09;4947615;28;20114;-80
2021/01/23 04:53:15;;;;;;;50.90;26.77;;;;;;;-0.70;96.44;99805.38;4945739;29;20039;-79
2021/01/23 04:55:42;;;;;;;52.65;26.83;;;;;;;-0.75;96.25;99795.38;4934729;29;20114;-79
2021/01/23 04:58:08;;;;;;;51.45;26.23;;;;;;;-0.79;96.30;99799.91;4934091;28;20149;-79
2021/01/23 05:00:33;;;;;;;54.92;25.55;;;;;;;-0.80;96.61;99792.28;4931593;29;20126;-81
2021/01/23 05:03:01;;;;;;;56.72;26.42;;;;;;;-0.84;96.52;99793.38;4913869;29;20179;-77
2021/01/23 05:05:27;;;;;;;58.53;27.90;;;;;;;-0.77;96.70;99809.25;4936517;29;20042;-79
2021/01/23 05:07:53;;;;;;;62.22;26.30;;;;;;;-0.87;96.71;99791.00;4951745;29;20059;-78
2021/01/23 05:10:24;;;;;;;55.65;26.58;;;;;;;-0.84;97.07;99794.22;4935057;29;20043;-78
2021/01/23 05:12:51;;;;;;;52.58;26.67;;;;;;;-0.82;96.79;99796.69;4940598;28;20043;-81
2021/01/23 05:15:19;;;;;;;56.85;27.58;;;;;;;-0.84;96.79;99795.97;4923399;28;20039;-80
2021/01/23 05:18:08;;;;;;;51.25;24.63;;;;;;;-0.91;96.84;99790.38;4955877;28;20094;-80
2021/01/23 05:20:49;;;;;;;56.38;25.52;;;;;;;-0.82;96.62;99802.66;4928407;29;20036;-78
2021/01/23 05:23:26;;;;;;;61.25;27.05;;;;;;;-0.87;96.61;99788.41;4954572;28;20054;-80
2021/01/23 05:25:57;;;;;;;55.75;27.65;;;;;;;-0.80;96.43;99787.13;4937789;29;20042;-79
2021/01/23 05:28:29;;;;;;;58.38;28.33;;;;;;;-0.81;96.68;99785.44;4932574;29;20027;-78
2021/01/23 05:30:55;;;;;;;62.88;27.90;;;;;;;-0.86;96.78;99790.91;4930179;29;20027;-77
2021/01/23 05:33:27;;;;;;;51.50;27.13;;;;;;;-0.85;96.73;99796.88;4932977;29;20046;-80
2021/01/23 05:36:10;;;;;;;56.03;23.17;;;;;;;-0.95;96.85;99782.94;4931850;29;20039;-79
2021/01/23 05:38:41;;;;;;;63.38;26.85;;;;;;;-0.97;96.89;99785.59;4944542;29;20398;-80
2021/01/23 05:41:08;;;;;;;59.83;28.17;;;;;;;-0.86;96.70;99785.75;4915741;29;20059;-79
2021/01/23 05:43:40;;;;;;;65.68;28.55;;;;;;;-0.88;96.53;99787.59;4934390;29;20039;-79
2021/01/23 05:46:14;;;;;;;57.55;26.08;;;;;;;-0.93;96.80;99787.06;4911722;28;20052;-79
2021/01/23 05:48:49;;;;;;;59.90;27.88;;;;;;;-0.89;96.94;99796.25;4906197;29;20046;-80
2021/01/23 05:51:16;;;;;;;53.25;25.52;;;;;;;-0.98;96.63;99784.78;4953579;28;20418;-81
2021/01/23 05:53:43;;;;;;;55.55;26.38;;;;;;;-1.02;96.98;99787.63;4917034;29;20126;-78
2021/01/23 05:56:09;;;;;;;59.25;27.23;;;;;;;-0.98;96.63;99794.25;4921180;29;20039;-79
2021/01/23 05:58:38;;;;;;;62.88;28.90;;;;;;;-1.06;97.10;99784.44;4925275;29;20494;-79
2021/01/23 06:01:24;;;;;;;59.92;27.60;;;;;;;-0.96;96.99;99797.56;4915836;29;20055;-79
2021/01/23 06:03:51;;;;;;;62.22;27.77;;;;;;;-1.01;97.01;99792.69;4930323;29;20039;-79
2021/01/23 06:06:17;;;;;;;50.95;23.98;;;;;;;-1.13;97.04;99787.47;4929955;29;20692;-79
2021/01/23 06:08:48;;;;;;;55.95;27.13;;;;;;;-1.10;97.09;99793.25;4936340;29;20050;-78
2021/01/23 06:11:20;;;;;;;52.50;26.98;;;;;;;-1.06;97.49;99794.72;4935366;29;20050;-79
2021/01/23 06:13:50;;;;;;;56.00;26.40;;;;;;;-1.08;97.41;99795.75;4918972;29;20090;-80
2021/01/23 06:16:31;;;;;;;66.60;29.20;;;;;;;-0.99;97.25;99800.31;4927153;29;20046;-80
2021/01/23 06:18:57;;;;;;;58.88;27.10;;;;;;;-1.00;97.22;99793.50;4921555;29;20171;-80
2021/01/23 06:21:43;;;;;;;68.18;29.45;;;;;;;-0.99;97.24;99803.72;4932307;29;20494;-81
2021/01/23 06:24:31;;;;;;;71.78;31.05;;;;;;;-1.03;97.25;99786.81;4919044;28;20428;-80
2021/01/23 06:26:58;;;;;;;60.60;27.50;;;;;;;-0.95;97.26;99801.78;4930297;29;20062;-80
2021/01/23 06:29:34;;;;;;;64.28;29.13;;;;;;;-0.96;97.04;99807.88;4937445;29;20039;-79
2021/01/23 06:32:12;;;;;;;54.35;27.15;;;;;;;-1.00;97.31;99808.97;4918003;29;20078;-79
2021/01/23 06:34:47;;;;;;;66.47;28.15;;;;;;;-1.00;96.93;99814.94;4934385;29;20501;-79
2021/01/23 06:37:23;;;;;;;67.45;29.35;;;;;;;-1.01;97.17;99815.84;4910460;29;20134;-78
2021/01/23 06:40:10;;;;;;;60.97;27.30;;;;;;;-1.05;97.22;99811.84;4948543;29;20050;-78
2021/01/23 06:42:40;;;;;;;63.85;29.90;;;;;;;-0.98;97.77;99819.97;4907574;29;20031;-79
2021/01/23 06:45:24;;;;;;;73.85;30.98;;;;;;;-0.97;97.44;99824.22;4917963;29;20122;-79
2021/01/23 06:47:57;;;;;;;75.18;30.98;;;;;;;-0.98;97.40;99817.41;4928752;29;20529;-79
2021/01/23 06:50:28;;;;;;;77.70;30.95;;;;;;;-0.99;97.20;99819.16;4935816;29;20058;-76
2021/01/23 06:52:54;;;;;;;67.38;29.40;;;;;;;-0.98;97.25;99819.97;4939215;28;20066;-79
2021/01/23 06:55:39;;;;;;;65.65;29.92;;;;;;;-0.99;97.51;99816.59;4919915;29;20094;-80
2021/01/23 06:58:12;;;;;;;72.40;31.90;;;;;;;-1.05;97.37;99811.84;4947339;29;20086;-77
2021/01/23 07:00:37;;;;;;;83.90;34.00;;;;;;;-0.98;97.17;99818.25;4947312;29;20459;-79
2021/01/23 07:03:08;;;;;;;72.97;31.42;;;;;;;-0.90;97.43;99829.84;4921821;29;20130;-79
2021/01/23 07:05:34;;;;;;;74.72;32.80;;;;;;;-0.94;97.81;99821.47;4957100;29;20039;-78
2021/01/23 07:07:59;;;;;;;68.95;31.23;;;;;;;-0.91;97.47;99831.56;4944391;28;20039;-78
2021/01/23 07:10:25;;;;;;;78.00;31.13;;;;;;;-0.91;97.84;99825.59;4933387;29;20094;-78
2021/01/23 07:12:50;;;;;;;80.43;32.90;;;;;;;-0.92;98.14;99822.19;4936601;28;20023;-78
2021/01/23 07:15:22;;;;;;;76.00;30.88;;;;;;;-0.85;97.74;99822.63;4935193;29;20035;-77
2021/01/23 07:17:49;;;;;;;74.68;31.95;;;;;;;-0.90;97.62;99830.66;4922501;29;20039;-79
2021/01/23 07:20:19;;;;;;;73.95;31.52;;;;;;;-0.96;97.43;99825.03;4930687;28;20042;-78
2021/01/23 07:22:46;;;;;;;74.65;31.88;;;;;;;-0.95;97.80;99826.72;4931657;29;20043;-78
2021/01/23 07:25:17;;;;;;;69.30;29.85;;;;;;;-0.99;97.68;99826.06;4952759;28;20069;-78
2021/01/23 07:27:44;;;;;;;67.40;28.55;;;;;;;-1.02;97.58;99823.66;4940362;29;20055;-79
2021/01/23 07:30:17;;;;;;;69.35;29.15;;;;;;;-1.01;97.61;99818.44;4943186;29;20122;-79
2021/01/23 07:32:46;;;;;;;68.57;30.20;;;;;;;-1.01;97.68;99822.75;4907052;29;20074;-79
2021/01/23 07:35:13;;;;;;;81.57;32.33;;;;;;;-1.04;97.46;99813.47;4925448;29;20533;-78
2021/01/23 07:37:42;;;;;;;81.32;31.73;;;;;;;-1.02;97.86;99815.94;4910781;29;20106;-78
2021/01/23 07:40:10;;;;;;;70.45;30.42;;;;;;;-1.08;97.59;99813.75;4920551;29;20075;-75
2021/01/23 07:42:36;;;;;;;77.65;30.48;;;;;;;-1.03;97.42;99811.75;4912353;29;20409;-78
2021/01/23 07:45:04;;;;;;;78.50;30.88;;;;;;;-1.04;97.50;99808.31;4915383;29;20087;-80
2021/01/23 07:47:30;;;;;;;72.55;31.25;;;;;;;-0.97;97.46;99806.19;4923018;29;20042;-79
2021/01/23 07:50:10;;;;;;;75.18;32.25;;;;;;;-0.92;97.34;99806.75;4919921;29;20035;-78
2021/01/23 07:52:37;;;;;;;73.70;31.38;;;;;;;-0.92;97.24;99801.59;4911046;29;20037;-78
2021/01/23 07:55:03;;;;;;;68.13;30.95;;;;;;;-0.82;97.20;99799.28;4947583;28;20027;-78
2021/01/23 07:57:29;;;;;;;68.35;30.40;;;;;;;-0.83;97.34;99795.03;4941663;29;20071;-78
2021/01/23 07:59:54;;;;;;;70.82;31.35;;;;;;;-0.74;96.77;99802.19;4931176;29;20059;-78
2021/01/23 08:02:20;;;;;;;71.20;32.08;;;;;;;-0.79;97.00;99783.63;4929455;29;20043;-78
2021/01/23 08:04:54;;;;;;;70.50;31.23;;;;;;;-0.76;97.01;99780.84;4909559;29;20115;-78
2021/01/23 08:07:30;;;;;;;77.15;31.48;;;;;;;-0.73;97.17;99774.69;4927483;29;20039;-79
2021/01/23 08:10:04;;;;;;;78.18;33.85;;;;;;;-0.76;97.10;99769.72;4933878;28;20129;-78
2021/01/23 08:12:29;;;;;;;71.63;32.60;;;;;;;-0.79;97.25;99763.03;4932091;28;20497;-78
2021/01/23 08:14:56;;;;;;;75.85;32.10;;;;;;;-0.77;97.05;99753.47;4924769;29;20098;-80
2021/01/23 08:17:45;;;;;;;70.28;30.63;;;;;;;-0.69;97.09;99760.69;4916604;29;20067;-78
2021/01/23 08:20:15;;;;;;;77.80;32.22;;;;;;;-0.69;97.07;99768.41;4919075;29;20043;-79
2021/01/23 08:23:03;;;;;;;74.07;30.85;;;;;;;-0.59;96.64;99774.63;4931362;29;20560;-80
2021/01/23 08:25:35;;;;;;;79.35;34.35;;;;;;;-0.66;97.33;99768.19;4949173;28;20046;-80
2021/01/23 08:28:01;;;;;;;70.20;30.67;;;;;;;-0.64;96.76;99753.47;4945466;28;20046;-80
2021/01/23 08:30:27;;;;;;;69.22;32.15;;;;;;;-0.44;96.95;99778.78;4939061;28;20020;-79
2021/01/23 08:32:54;;;;;;;78.43;32.65;;;;;;;-0.42;96.24;99766.63;4933731;29;20058;-79
2021/01/23 08:35:20;;;;;;;70.68;33.30;;;;;;;-0.46;96.55;99757.44;4931629;29;20050;-78
2021/01/23 08:37:46;;;;;;;70.43;31.23;;;;;;;-0.35;96.37;99761.91;4920290;29;20047;-80
2021/01/23 08:40:12;;;;;;;70.15;33.28;;;;;;;-0.40;95.67;99735.59;4951678;29;20031;-79
2021/01/23 08:42:38;;;;;;;77.53;32.97;;;;;;;-0.40;95.90;99735.59;4933664;29;20173;-80
2021/01/23 08:45:05;;;;;;;77.43;31.90;;;;;;;-0.38;95.77;99738.06;4915352;29;20051;-80
2021/01/23 08:47:30;;;;;;;67.05;30.23;;;;;;;-0.30;95.99;99740.97;4950521;28;20039;-80
2021/01/23 08:49:56;;;;;;;65.00;31.10;;;;;;;-0.34;95.85;99753.25;4944446;28;20062;-79
2021/01/23 08:52:21;;;;;;;84.03;32.75;;;;;;;-0.30;96.11;99751.28;4951068;28;20043;-78
2021/01/23 08:54:47;;;;;;;78.07;32.35;;;;;;;-0.17;95.46;99756.44;4945294;29;20039;-79
2021/01/23 08:57:13;;;;;;;69.13;31.67;;;;;;;-0.20;95.10;99744.59;4920852;28;20027;-80
2021/01/23 08:59:38;;;;;;;69.18;31.52;;;;;;;-0.25;95.45;99739.72;4934397;29;20031;-75
2021/01/23 09:02:04;;;;;;;65.65;31.70;;;;;;;-0.17;95.26;99749.56;4940203;29;20039;-76
2021/01/23 09:04:29;;;;;;;61.67;31.25;;;;;;;-0.03;95.42;99761.53;4928733;29;20039;-77
2021/01/23 09:06:55;;;;;;;76.18;32.72;;;;;;;-0.09;95.80;99761.94;4949420;28;20055;-73
2021/01/23 09:09:21;;;;;;;66.25;32.63;;;;;;;0.04;95.24;99764.50;4937375;28;20165;-77
2021/01/23 09:11:47;;;;;;;75.57;33.65;;;;;;;0.12;94.73;99780.28;4928740;29;20453;-77
2021/01/23 09:14:12;;;;;;;72.85;33.00;;;;;;;0.19;94.70;99782.34;4924475;29;20031;-75
2021/01/23 09:16:37;;;;;;;71.28;33.83;;;;;;;0.31;93.96;99780.69;4934658;29;20035;-79
2021/01/23 09:19:03;;;;;;;76.53;34.33;;;;;;;0.25;94.15;99782.88;4923348;29;20046;-78
2021/01/23 09:21:28;;;;;;;82.07;34.85;;;;;;;0.23;94.32;99789.88;4929534;29;20113;-77
2021/01/23 09:23:54;;;;;;;66.43;33.53;;;;;;;0.26;93.80;99805.97;4947771;29;20408;-78
2021/01/23 09:26:20;;;;;;;75.68;34.90;;;;;;;0.28;94.01;99803.28;4946609;28;20142;-76
2021/01/23 09:28:45;;;;;;;69.43;32.15;;;;;;;0.39;94.01;99805.97;4955455;29;20045;-77
2021/01/23 09:31:11;;;;;;;74.68;32.67;;;;;;;0.38;93.75;99796.59;4934715;29;20040;-78
2021/01/23 09:33:37;;;;;;;68.63;32.65;;;;;;;0.34;93.86;99788.22;4944879;28;20043;-78
2021/01/23 09:36:03;;;;;;;64.97;31.65;;;;;;;0.33;93.93;99784.00;4962021;28;20039;-78
2021/01/23 09:38:28;;;;;;;73.68;32.97;;;;;;;0.41;93.81;99792.97;4939956;29;20046;-79
2021/01/23 09:40:54;;;;;;;70.75;34.63;;;;;;;0.37;94.24;99800.09;4932191;29;20039;-81
2021/01/23 09:43:19;;;;;;;75.88;33.92;;;;;;;0.47;93.76;99793.38;4939676;29;20042;-77
2021/01/23 09:45:45;;;;;;;70.88;32.72;;;;;;;0.48;93.82;99789.84;4924101;29;20044;-78
2021/01/23 09:48:10;;;;;;;69.72;34.20;;;;;;;0.52;93.69;99786.13;4940797;29;20067;-76
2021/01/23 09:50:36;;;;;;;67.68;32.08;;;;;;;0.60;93.79;99787.38;4939406;29;20118;-76
2021/01/23 09:53:01;;;;;;;69.60;33.17;;;;;;;0.61;93.63;99791.63;4951506;28;20518;-77
2021/01/23 09:55:27;;;;;;;68.22;33.90;;;;;;;0.63;93.55;99795.72;4928549;29;20071;-76
2021/01/23 09:57:52;;;;;;;64.63;32.13;;;;;;;0.74;93.14;99800.97;4964582;28;20557;-77
2021/01/23 10:00:18;;;;;;;68.97;33.10;;;;;;;0.74;93.14;99800.16;4941479;28;20039;-77
2021/01/23 10:02:44;;;;;;;71.55;33.70;;;;;;;0.81;92.97;99810.84;4950641;29;20164;-78
2021/01/23 10:05:10;;;;;;;71.38;33.92;;;;;;;0.82;92.37;99810.75;4925136;29;20041;-77
2021/01/23 10:07:35;;;;;;;68.78;32.53;;;;;;;0.88;92.58;99804.34;4953277;29;20122;-78
2021/01/23 10:10:02;;;;;;;69.97;32.05;;;;;;;0.87;92.76;99798.38;4934179;29;20123;-78
2021/01/23 10:12:30;;;;;;;67.95;33.28;;;;;;;0.92;92.77;99801.47;4914323;29;20407;-77
2021/01/23 10:14:56;;;;;;;67.15;33.55;;;;;;;0.93;92.19;99799.69;4964253;28;20075;-80
2021/01/23 10:17:22;;;;;;;66.57;33.47;;;;;;;1.02;92.42;99804.22;4967421;29;20054;-79
2021/01/23 10:19:47;;;;;;;65.75;33.15;;;;;;;0.96;91.97;99792.56;4941118;29;20174;-77
2021/01/23 10:22:13;;;;;;;65.72;32.85;;;;;;;0.98;92.44;99792.44;4943643;29;20126;-76
2021/01/23 10:24:38;;;;;;;61.42;32.22;;;;;;;1.09;92.34;99797.69;4933836;29;20047;-76
2021/01/23 10:27:04;;;;;;;65.22;33.30;;;;;;;1.14;91.86;99793.00;4951389;28;20043;-76
2021/01/23 10:29:30;;;;;;;68.95;33.85;;;;;;;1.19;91.77;99784.09;4954456;28;20192;-77
2021/01/23 10:31:56;;;;;;;70.35;32.10;;;;;;;1.31;91.58;99784.03;4974090;28;20042;-77
2021/01/23 10:34:21;;;;;;;61.47;30.48;;;;;;;1.31;91.51;99781.44;4954869;28;20050;-76
2021/01/23 10:36:47;;;;;;;65.30;32.55;;;;;;;1.42;91.55;99783.25;4926616;28;20062;-77
2021/01/23 10:39:12;;;;;;;68.40;31.92;;;;;;;1.57;91.28;99780.50;4948331;29;20529;-76
2021/01/23 10:41:38;;;;;;;65.60;32.25;;;;;;;1.66;90.26;99772.09;4936866;28;20164;-78
2021/01/23 10:44:04;;;;;;;69.00;34.13;;;;;;;1.68;90.95;99773.63;4935823;29;20047;-78
2021/01/23 10:46:29;;;;;;;64.32;33.85;;;;;;;1.77;90.04;99771.28;4950452;29;20557;-76
2021/01/23 10:48:55;;;;;;;65.70;33.70;;;;;;;1.86;89.65;99771.41;4954398;28;20089;-77
2021/01/23 10:51:21;;;;;;;64.50;32.60;;;;;;;1.84;89.56;99768.13;4947566;29;20046;-77
2021/01/23 10:53:48;;;;;;;67.85;32.35;;;;;;;1.84;89.36;99764.72;4955282;28;20079;-78
2021/01/23 10:56:14;;;;;;;65.93;32.83;;;;;;;2.00;89.43;99759.19;4947987;28;20137;-78
2021/01/23 10:58:40;;;;;;;63.08;32.33;;;;;;;2.06;89.09;99758.75;4943904;29;20075;-75
2021/01/23 11:01:06;;;;;;;60.05;31.20;;;;;;;2.06;89.25;99743.25;4940429;28;20052;-77
2021/01/23 11:03:31;;;;;;;68.38;32.10;;;;;;;2.14;88.35;99752.03;4937503;29;20235;-75
2021/01/23 11:05:57;;;;;;;61.45;30.67;;;;;;;2.20;88.50;99753.34;4918063;29;20071;-77
2021/01/23 11:08:23;;;;;;;63.75;30.83;;;;;;;2.27;88.03;99741.59;4949389;29;20035;-78
2021/01/23 11:10:49;;;;;;;55.45;28.85;;;;;;;2.29;87.54;99736.31;4951574;28;20069;-75
2021/01/23 11:13:14;;;;;;;62.00;29.92;;;;;;;2.23;87.70;99727.25;4933331;28;20593;-76
2021/01/23 11:15:40;;;;;;;57.20;29.48;;;;;;;2.27;88.22;99726.06;4954282;28;20570;-77
2021/01/23 11:18:05;;;;;;;59.38;30.17;;;;;;;2.32;87.96;99725.72;4959287;28;20054;-76
2021/01/23 11:20:31;;;;;;;56.88;29.67;;;;;;;2.44;87.29;99719.59;4942705;28;20047;-77
2021/01/23 11:22:57;;;;;;;53.22;27.85;;;;;;;2.46;87.02;99719.47;4958621;28;20042;-75
2021/01/23 11:25:23;;;;;;;60.65;30.00;;;;;;;2.50;87.32;99713.91;4962879;28;20042;-79